createdAt,value
2022-08-05T00:02:11.536Z,17.52
2022-08-05T00:04:40.179Z,17.51
2022-08-05T00:07:27.075Z,17.50
2022-08-05T00:09:57.322Z,17.44
2022-08-05T00:12:26.338Z,17.42
2022-08-05T00:14:54.076Z,17.39
2022-08-05T00:17:21.927Z,17.36
2022-08-05T00:20:02.026Z,17.34
2022-08-05T00:22:31.964Z,17.29
2022-08-05T00:24:59.726Z,17.24
2022-08-05T00:27:36.280Z,17.19
2022-08-05T00:30:05.435Z,17.13
2022-08-05T00:32:39.241Z,17.09
2022-08-05T00:35:09.518Z,17.06
2022-08-05T00:37:53.103Z,17.01
2022-08-05T00:40:26.682Z,16.95
2022-08-05T00:42:58.262Z,16.92
2022-08-05T00:45:39.027Z,16.86
2022-08-05T00:48:12.202Z,16.79
2022-08-05T00:50:41.886Z,16.76
2022-08-05T00:54:00.440Z,16.72
2022-08-05T00:55:59.139Z,16.66
2022-08-05T00:58:27.595Z,16.63
2022-08-05T01:00:56.683Z,16.60
2022-08-05T01:03:31.105Z,16.58
2022-08-05T01:06:03.810Z,16.53
2022-08-05T01:08:43.426Z,16.51
2022-08-05T01:11:22.389Z,16.47
2022-08-05T01:14:01.232Z,16.45
2022-08-05T01:16:39.239Z,16.42
2022-08-05T01:19:16.931Z,16.40
2022-08-05T01:22:23.977Z,16.41
2022-08-05T01:25:06.791Z,16.39
2022-08-05T01:27:55.450Z,16.39
2022-08-05T01:30:34.645Z,16.37
2022-08-05T01:33:08.260Z,16.39
2022-08-05T01:35:50.836Z,16.42
2022-08-05T01:38:27.496Z,16.43
2022-08-05T01:41:01.330Z,16.45
2022-08-05T01:43:33.474Z,16.48
2022-08-05T01:46:07.304Z,16.50
2022-08-05T01:48:52.717Z,16.51
2022-08-05T01:51:21.626Z,16.54
2022-08-05T01:53:57.401Z,16.57
2022-08-05T01:58:11.725Z,16.57
2022-08-05T01:59:24.071Z,16.57
2022-08-05T02:01:56.336Z,16.56
2022-08-05T02:04:29.054Z,16.57
2022-08-05T02:06:58.946Z,16.56
2022-08-05T02:09:28.136Z,16.58
2022-08-05T02:12:06.664Z,16.59
2022-08-05T02:14:44.762Z,16.59
2022-08-05T02:18:27.956Z,16.58
2022-08-05T02:20:20.665Z,16.58
2022-08-05T02:22:55.162Z,16.58
2022-08-05T02:25:26.218Z,16.57
2022-08-05T02:28:04.338Z,16.58
2022-08-05T02:30:54.306Z,16.58
2022-08-05T02:33:24.509Z,16.57
2022-08-05T02:36:17.784Z,16.58
2022-08-05T02:38:53.324Z,16.60
2022-08-05T02:41:23.236Z,16.62
2022-08-05T02:44:02.801Z,16.63
2022-08-05T02:46:53.447Z,16.62
2022-08-05T02:49:26.740Z,16.62
2022-08-05T02:52:02.945Z,16.63
2022-08-05T02:54:35.844Z,16.64
2022-08-05T02:58:08.524Z,16.64
2022-08-05T02:59:56.278Z,16.62
2022-08-05T03:02:29.778Z,16.64
2022-08-05T03:04:59.288Z,16.63
2022-08-05T03:08:00.085Z,16.62
2022-08-05T03:10:24.538Z,16.60
2022-08-05T03:12:54.394Z,16.58
2022-08-05T03:15:24.175Z,16.56
2022-08-05T03:17:55.499Z,16.56
2022-08-05T03:20:24.924Z,16.52
2022-08-05T03:22:57.082Z,16.49
2022-08-05T03:25:33.788Z,16.47
2022-08-05T03:28:18.893Z,16.44
2022-08-05T03:30:48.709Z,16.43
2022-08-05T03:33:18.501Z,16.42
2022-08-05T03:35:47.333Z,16.41
2022-08-05T03:38:16.017Z,16.40
2022-08-05T03:40:48.666Z,16.39
2022-08-05T03:44:09.570Z,16.36
2022-08-05T03:46:08.244Z,16.33
2022-08-05T03:48:37.602Z,16.33
2022-08-05T03:52:37.066Z,16.32
2022-08-05T03:55:50.630Z,16.30
2022-08-05T03:57:00.074Z,16.28
2022-08-05T03:59:46.865Z,16.30
2022-08-05T04:02:38.310Z,16.27
2022-08-05T04:05:11.025Z,16.27
2022-08-05T04:07:57.362Z,16.25
2022-08-05T04:10:27.657Z,16.25
2022-08-05T04:12:56.376Z,16.27
2022-08-05T04:15:27.752Z,16.27
2022-08-05T04:18:03.172Z,16.29
2022-08-05T04:20:32.432Z,16.30
2022-08-05T04:23:01.394Z,16.32
2022-08-05T04:25:56.456Z,16.35
2022-08-05T04:28:17.274Z,16.37
2022-08-05T04:30:45.609Z,16.39
2022-08-05T04:33:14.005Z,16.42
2022-08-05T04:36:16.193Z,16.44
2022-08-05T04:38:39.506Z,16.45
2022-08-05T04:41:09.515Z,16.47
2022-08-05T04:43:40.642Z,16.46
2022-08-05T04:46:28.158Z,16.45
2022-08-05T04:48:58.840Z,16.45
2022-08-05T04:51:30.373Z,16.46
2022-08-05T04:53:58.569Z,16.45
2022-08-05T04:56:34.673Z,16.48
2022-08-05T04:59:21.681Z,16.49
2022-08-05T05:02:35.291Z,16.53
2022-08-05T05:04:43.996Z,16.57
2022-08-05T05:07:17.181Z,16.65
2022-08-05T05:09:45.190Z,16.72
2022-08-05T05:12:13.243Z,16.79
2022-08-05T05:14:50.726Z,16.86
2022-08-05T05:17:23.776Z,16.94
2022-08-05T05:19:54.447Z,17.02
2022-08-05T05:22:26.133Z,17.10
2022-08-05T05:24:57.470Z,17.19
2022-08-05T05:27:45.740Z,17.27
2022-08-05T05:30:29.508Z,17.36
2022-08-05T05:33:01.249Z,17.44
2022-08-05T05:35:39.551Z,17.52
2022-08-05T05:38:13.533Z,17.58
2022-08-05T05:40:50.021Z,17.65
2022-08-05T05:43:27.545Z,17.71
2022-08-05T05:46:13.678Z,17.76
2022-08-05T05:48:44.526Z,17.83
2022-08-05T05:51:15.691Z,17.88
2022-08-05T05:53:54.310Z,17.91
2022-08-05T05:56:32.765Z,17.91
2022-08-05T05:59:03.150Z,17.96
2022-08-05T06:01:37.701Z,18.01
2022-08-05T06:04:07.955Z,18.07
2022-08-05T06:06:36.016Z,18.09
2022-08-05T06:09:07.592Z,18.10
2022-08-05T06:11:39.328Z,18.10
2022-08-05T06:14:07.378Z,18.06
2022-08-05T06:16:37.210Z,18.07
2022-08-05T06:19:07.925Z,18.07
2022-08-05T06:21:38.336Z,18.08
2022-08-05T06:24:11.774Z,18.09
2022-08-05T06:26:40.137Z,18.13
2022-08-05T06:29:25.349Z,18.20
2022-08-05T06:32:17.243Z,18.28
2022-08-05T06:34:56.057Z,18.46
2022-08-05T06:37:58.026Z,18.69
2022-08-05T06:40:18.184Z,19.07
2022-08-05T06:42:51.589Z,19.50
2022-08-05T06:45:21.454Z,20.00
2022-08-05T06:48:35.939Z,20.55
2022-08-05T06:50:56.422Z,21.13
2022-08-05T06:53:28.230Z,21.72
2022-08-05T06:55:58.298Z,22.36
2022-08-05T06:58:35.237Z,22.92
2022-08-05T07:01:06.331Z,23.53
2022-08-05T07:03:35.384Z,24.19
2022-08-05T07:06:05.831Z,24.71
2022-08-05T07:08:42.088Z,25.28
2022-08-05T07:11:15.594Z,25.81
2022-08-05T07:14:01.225Z,26.20
2022-08-05T07:18:02.423Z,26.62
2022-08-05T07:22:28.291Z,27.36
2022-08-05T07:24:58.450Z,27.64
2022-08-05T07:27:58.421Z,28.02
2022-08-05T07:30:25.508Z,28.32
2022-08-05T07:32:58.402Z,28.68
2022-08-05T07:36:05.387Z,28.89
2022-08-05T07:38:32.979Z,29.09
2022-08-05T07:41:16.635Z,29.40
2022-08-05T07:43:52.030Z,29.79
2022-08-05T07:46:25.304Z,30.09
2022-08-05T07:49:02.124Z,30.43
2022-08-05T07:51:36.798Z,30.68
2022-08-05T07:54:06.285Z,30.80
2022-08-05T07:57:00.667Z,30.81
2022-08-05T07:59:39.117Z,30.79
2022-08-05T08:02:10.681Z,30.92
2022-08-05T08:04:44.772Z,31.21
2022-08-05T08:07:13.292Z,31.38
2022-08-05T08:09:41.068Z,31.59
2022-08-05T08:12:30.561Z,31.93
2022-08-05T08:15:02.538Z,32.14
2022-08-05T08:17:31.542Z,32.14
2022-08-05T08:20:23.478Z,31.89
2022-08-05T08:22:52.274Z,31.55
2022-08-05T08:25:27.126Z,31.24
2022-08-05T08:28:18.338Z,30.89
2022-08-05T08:30:49.633Z,30.54
2022-08-05T08:33:19.776Z,30.16
2022-08-05T08:35:53.112Z,29.92
2022-08-05T08:38:35.706Z,29.75
2022-08-05T08:41:08.490Z,29.73
2022-08-05T08:45:24.013Z,29.89
2022-08-05T08:46:30.470Z,30.31
2022-08-05T08:50:04.033Z,30.74
2022-08-05T08:52:05.698Z,31.19
2022-08-05T08:54:38.115Z,31.36
2022-08-05T08:57:13.485Z,31.61
2022-08-05T08:59:47.159Z,31.71
2022-08-05T09:02:20.943Z,31.76
2022-08-05T09:05:16.971Z,31.89
2022-08-05T09:07:56.906Z,31.96
2022-08-05T09:10:27.734Z,31.62
2022-08-05T09:13:04.528Z,31.32
2022-08-05T09:15:37.090Z,31.13
2022-08-05T09:18:09.284Z,30.82
2022-08-05T09:20:38.009Z,30.45
2022-08-05T09:23:10.536Z,30.07
2022-08-05T09:26:03.853Z,29.60
2022-08-05T09:28:35.116Z,29.08
2022-08-05T09:31:18.220Z,28.59
2022-08-05T09:33:56.573Z,28.10
2022-08-05T09:36:27.638Z,27.78
2022-08-05T09:39:03.082Z,27.51
2022-08-05T09:41:32.747Z,27.27
2022-08-05T09:44:01.276Z,26.98
2022-08-05T09:46:31.062Z,26.74
2022-08-05T09:49:06.719Z,26.60
2022-08-05T09:51:38.106Z,26.40
2022-08-05T09:54:09.592Z,26.33
2022-08-05T09:56:39.685Z,26.23
2022-08-05T09:59:09.581Z,26.07
2022-08-05T10:01:45.835Z,26.00
2022-08-05T10:04:17.506Z,25.96
2022-08-05T10:06:59.488Z,26.03
2022-08-05T10:09:30.047Z,25.97
2022-08-05T10:12:18.722Z,26.12
2022-08-05T10:15:16.903Z,26.24
2022-08-05T10:17:47.534Z,26.23
2022-08-05T10:20:26.883Z,26.23
2022-08-05T10:22:55.739Z,26.25
2022-08-05T10:25:26.467Z,26.26
2022-08-05T10:28:13.527Z,26.30
2022-08-05T10:32:53.120Z,26.30
2022-08-05T10:33:35.393Z,26.18
2022-08-05T10:36:06.838Z,26.14
2022-08-05T10:38:38.149Z,26.01
2022-08-05T10:41:23.568Z,25.95
2022-08-05T10:43:56.584Z,25.88
2022-08-05T10:46:45.429Z,26.16
2022-08-05T10:49:16.449Z,26.48
2022-08-05T10:51:57.738Z,26.62
2022-08-05T10:54:56.481Z,26.61
2022-08-05T10:57:31.717Z,26.49
2022-08-05T11:00:19.593Z,26.46
2022-08-05T11:03:24.550Z,26.43
2022-08-05T11:06:15.127Z,26.42
2022-08-05T11:09:18.578Z,26.39
2022-08-05T11:11:54.092Z,26.34
2022-08-05T11:14:57.478Z,26.38
2022-08-05T11:18:07.685Z,26.60
2022-08-05T11:20:45.035Z,26.62
2022-08-05T11:24:05.470Z,26.35
2022-08-05T11:26:28.014Z,26.26
2022-08-05T11:28:58.677Z,26.42
2022-08-05T11:31:57.972Z,26.59
2022-08-05T11:34:37.233Z,26.75
2022-08-05T11:37:06.227Z,26.78
2022-08-05T11:40:00.661Z,26.59
2022-08-05T11:42:38.121Z,26.39
2022-08-05T11:45:14.298Z,26.39
2022-08-05T11:47:54.461Z,26.33
2022-08-05T11:50:22.524Z,26.15
2022-08-05T11:52:54.416Z,25.94
2022-08-05T11:55:32.082Z,25.83
2022-08-05T11:58:09.388Z,25.65
2022-08-05T12:00:41.210Z,25.42
2022-08-05T12:03:28.764Z,25.45
2022-08-05T12:06:02.680Z,25.48
2022-08-05T12:08:31.673Z,25.51
2022-08-05T12:11:05.567Z,25.63
2022-08-05T12:13:49.706Z,25.73
2022-08-05T12:16:27.040Z,25.84
2022-08-05T12:18:55.595Z,25.96
2022-08-05T12:21:26.879Z,26.03
2022-08-05T12:24:05.208Z,25.94
2022-08-05T12:26:36.521Z,25.77
2022-08-05T12:29:09.499Z,25.82
2022-08-05T12:31:45.995Z,25.94
2022-08-05T12:34:21.467Z,26.08
2022-08-05T12:36:54.224Z,26.34
2022-08-05T12:39:23.634Z,26.49
2022-08-05T12:42:00.217Z,26.59
2022-08-05T12:44:34.084Z,26.56
2022-08-05T12:47:02.828Z,26.65
2022-08-05T12:50:04.720Z,26.76
2022-08-05T12:52:33.952Z,26.86
2022-08-05T12:55:17.879Z,27.07
2022-08-05T12:58:50.750Z,27.08
2022-08-05T13:02:03.021Z,27.06
2022-08-05T13:03:32.988Z,27.14
2022-08-05T13:06:01.296Z,27.08
2022-08-05T13:08:30.294Z,27.16
2022-08-05T13:11:01.322Z,27.32
2022-08-05T13:14:07.348Z,27.34
2022-08-05T13:16:20.265Z,27.36
2022-08-05T13:18:52.296Z,27.45
2022-08-05T13:21:23.247Z,27.44
2022-08-05T13:23:56.477Z,27.26
2022-08-05T13:26:30.109Z,27.30
2022-08-05T13:28:59.103Z,27.35
2022-08-05T13:32:03.296Z,27.46
2022-08-05T13:34:23.365Z,27.53
2022-08-05T13:36:53.147Z,27.51
2022-08-05T13:39:24.337Z,27.58
2022-08-05T13:42:14.670Z,27.78
2022-08-05T13:44:46.313Z,27.69
2022-08-05T13:47:35.931Z,27.43
2022-08-05T13:50:07.394Z,27.33
2022-08-05T13:52:38.066Z,27.25
2022-08-05T13:55:07.649Z,27.22
2022-08-05T13:57:51.441Z,27.24
2022-08-05T14:00:26.739Z,27.21
2022-08-05T14:02:57.845Z,27.04
2022-08-05T14:05:48.552Z,26.95
2022-08-05T14:08:20.285Z,26.86
2022-08-05T14:10:49.781Z,26.82
2022-08-05T14:13:18.811Z,26.73
2022-08-05T14:16:06.890Z,26.57
2022-08-05T14:18:38.507Z,26.43
2022-08-05T14:22:07.011Z,26.31
2022-08-05T14:23:54.374Z,26.12
2022-08-05T14:26:35.495Z,25.99
2022-08-05T14:29:10.035Z,25.94
2022-08-05T14:32:03.917Z,25.86
2022-08-05T14:34:35.412Z,25.60
2022-08-05T14:37:03.652Z,25.48
2022-08-05T14:39:49.401Z,25.31
2022-08-05T14:42:23.254Z,25.19
2022-08-05T14:44:52.861Z,25.18
2022-08-05T14:48:02.948Z,25.16
2022-08-05T14:50:17.380Z,25.02
2022-08-05T14:52:56.758Z,25.00
2022-08-05T14:55:28.738Z,24.93
2022-08-05T14:58:12.025Z,24.91
2022-08-05T15:00:59.252Z,24.91
2022-08-05T15:03:33.110Z,24.88
2022-08-05T15:06:08.354Z,24.84
2022-08-05T15:08:59.118Z,24.71
2022-08-05T15:11:53.163Z,24.55
2022-08-05T15:14:34.436Z,24.44
2022-08-05T15:17:14.535Z,24.41
2022-08-05T15:19:55.062Z,24.31
2022-08-05T15:22:27.454Z,24.29
2022-08-05T15:24:56.333Z,24.26
2022-08-05T15:27:25.441Z,24.13
2022-08-05T15:29:54.218Z,24.07
2022-08-05T15:32:28.719Z,23.94
2022-08-05T15:34:57.337Z,23.89
2022-08-05T15:38:34.337Z,23.91
2022-08-05T15:41:01.107Z,23.84
2022-08-05T15:43:10.820Z,23.76
2022-08-05T15:45:47.753Z,23.68
2022-08-05T15:48:28.307Z,23.59
2022-08-05T15:50:56.350Z,23.56
2022-08-05T15:53:28.294Z,23.54
2022-08-05T15:56:13.040Z,23.47
2022-08-05T15:58:42.189Z,23.39
2022-08-05T16:01:16.142Z,23.31
2022-08-05T16:03:50.235Z,23.17
2022-08-05T16:06:19.843Z,23.04
2022-08-05T16:08:55.228Z,23.01
2022-08-05T16:11:42.352Z,22.92
2022-08-05T16:14:17.529Z,22.80
2022-08-05T16:16:46.506Z,22.79
2022-08-05T16:19:19.250Z,22.82
2022-08-05T16:22:03.357Z,22.82
2022-08-05T16:24:40.259Z,22.81
2022-08-05T16:27:10.210Z,22.75
2022-08-05T16:29:49.988Z,22.66
2022-08-05T16:32:28.399Z,22.60
2022-08-05T16:34:57.480Z,22.49
2022-08-05T16:38:02.565Z,22.43
2022-08-05T16:40:26.701Z,22.32
2022-08-05T16:43:00.103Z,22.26
2022-08-05T16:46:06.566Z,22.20
2022-08-05T16:48:25.283Z,22.15
2022-08-05T16:50:59.568Z,22.14
2022-08-05T16:53:32.238Z,22.13
2022-08-05T16:56:02.074Z,22.01
2022-08-05T16:58:29.820Z,21.95
2022-08-05T17:00:57.777Z,21.89
2022-08-05T17:03:27.022Z,21.86
2022-08-05T17:05:59.525Z,21.83
2022-08-05T17:08:36.778Z,21.76
2022-08-05T17:11:17.415Z,21.64
2022-08-05T17:13:45.463Z,21.60
2022-08-05T17:16:32.956Z,21.57
2022-08-05T17:19:02.001Z,21.52
2022-08-05T17:21:36.157Z,21.48
2022-08-05T17:24:18.357Z,21.44
2022-08-05T17:26:54.128Z,21.36
2022-08-05T17:29:33.152Z,21.25
2022-08-05T17:32:02.110Z,21.11
2022-08-05T17:34:32.186Z,20.99
2022-08-05T17:37:02.611Z,20.86
2022-08-05T17:39:33.912Z,20.75
2022-08-05T17:42:18.621Z,20.64
2022-08-05T17:44:51.111Z,20.54
2022-08-05T17:47:22.584Z,20.48
2022-08-05T17:49:59.844Z,20.41
2022-08-05T17:52:32.575Z,20.36
2022-08-05T17:55:03.110Z,20.29
2022-08-05T17:57:34.743Z,20.23
2022-08-05T18:00:06.489Z,20.15
2022-08-05T18:02:35.089Z,20.03
2022-08-05T18:05:07.934Z,19.93
2022-08-05T18:07:41.711Z,19.85
2022-08-05T18:10:11.393Z,19.76
2022-08-05T18:12:42.020Z,19.69
2022-08-05T18:15:10.774Z,19.59
2022-08-05T18:17:59.553Z,19.53
2022-08-05T18:20:29.445Z,19.39
2022-08-05T18:23:00.739Z,19.26
2022-08-05T18:25:39.608Z,19.13
2022-08-05T18:28:17.453Z,19.06
2022-08-05T18:30:45.835Z,18.96
2022-08-05T18:33:22.919Z,18.87
2022-08-05T18:36:03.249Z,18.80
2022-08-05T18:38:35.867Z,18.72
2022-08-05T18:41:57.177Z,18.66
2022-08-05T18:43:56.538Z,18.55
2022-08-05T18:46:26.249Z,18.46
2022-08-05T18:48:56.883Z,18.39
2022-08-05T18:52:06.556Z,18.32
2022-08-05T18:54:31.918Z,18.20
2022-08-05T18:57:01.318Z,18.16
2022-08-05T18:59:42.666Z,18.10
2022-08-05T19:02:27.016Z,18.01
2022-08-05T19:05:02.560Z,17.96
2022-08-05T19:07:46.945Z,17.91
2022-08-05T19:10:14.853Z,17.89
2022-08-05T19:12:43.130Z,17.85
2022-08-05T19:15:50.671Z,17.80
2022-08-05T19:18:10.230Z,17.75
2022-08-05T19:20:48.986Z,17.73
2022-08-05T19:24:03.271Z,17.70
2022-08-05T19:26:04.692Z,17.65
2022-08-05T19:28:36.319Z,17.63
2022-08-05T19:31:06.035Z,17.61
2022-08-05T19:33:38.089Z,17.55
2022-08-05T19:36:09.266Z,17.52
2022-08-05T19:38:37.139Z,17.50
2022-08-05T19:41:07.271Z,17.45
2022-08-05T19:44:04.070Z,17.40
2022-08-05T19:46:31.624Z,17.34
2022-08-05T19:49:01.198Z,17.30
2022-08-05T19:52:08.948Z,17.20
2022-08-05T19:54:29.518Z,17.12
2022-08-05T19:57:02.411Z,17.13
2022-08-05T19:59:55.786Z,17.10
2022-08-05T20:02:32.200Z,17.05
2022-08-05T20:05:00.380Z,17.01
2022-08-05T20:07:47.437Z,16.98
2022-08-05T20:10:17.090Z,16.94
2022-08-05T20:12:47.777Z,16.91
2022-08-05T20:15:48.927Z,16.88
2022-08-05T20:18:10.922Z,16.84
2022-08-05T20:20:56.757Z,16.79
2022-08-05T20:23:40.362Z,16.77
2022-08-05T20:26:15.935Z,16.73
2022-08-05T20:28:45.616Z,16.70
2022-08-05T20:31:13.846Z,16.67
2022-08-05T20:33:46.100Z,16.64
2022-08-05T20:36:16.187Z,16.62
2022-08-05T20:38:53.357Z,16.61
2022-08-05T20:41:27.066Z,16.60
2022-08-05T20:44:18.978Z,16.54
2022-08-05T20:46:59.715Z,16.55
2022-08-05T20:49:37.811Z,16.54
2022-08-05T20:52:08.434Z,16.50
2022-08-05T20:54:43.066Z,16.49
2022-08-05T20:57:24.620Z,16.47
2022-08-05T21:00:41.157Z,16.46
2022-08-05T21:03:08.022Z,16.45
2022-08-05T21:05:53.582Z,16.49
2022-08-05T21:08:32.966Z,16.48
2022-08-05T21:11:12.562Z,16.47
2022-08-05T21:13:55.747Z,16.47
2022-08-05T21:16:29.525Z,16.43
2022-08-05T21:19:00.183Z,16.42
2022-08-05T21:21:39.131Z,16.40
2022-08-05T21:24:09.865Z,16.37
2022-08-05T21:26:46.074Z,16.34
2022-08-05T21:29:18.414Z,16.31
2022-08-05T21:31:46.171Z,16.29
2022-08-05T21:34:15.757Z,16.29
2022-08-05T21:36:46.550Z,16.27
2022-08-05T21:39:26.833Z,16.23
2022-08-05T21:42:01.189Z,16.19
2022-08-05T21:44:29.946Z,16.17
2022-08-05T21:46:58.263Z,16.15
2022-08-05T21:49:48.143Z,16.13
2022-08-05T21:52:28.080Z,16.08
2022-08-05T21:54:56.848Z,16.05
2022-08-05T21:57:32.688Z,16.03
2022-08-05T22:00:05.958Z,16.03
2022-08-05T22:02:41.632Z,16.03
2022-08-05T22:05:11.105Z,16.02
2022-08-05T22:07:58.938Z,16.02
2022-08-05T22:10:27.792Z,15.99
2022-08-05T22:12:57.187Z,16.00
2022-08-05T22:15:56.524Z,15.99
2022-08-05T22:18:14.351Z,15.97
2022-08-05T22:20:44.134Z,15.97
2022-08-05T22:24:02.337Z,15.96
2022-08-05T22:26:36.360Z,15.91
2022-08-05T22:29:04.423Z,15.88
2022-08-05T22:31:44.755Z,15.87
2022-08-05T22:34:25.521Z,15.84
2022-08-05T22:36:56.837Z,15.83
2022-08-05T22:39:33.063Z,15.84
2022-08-05T22:42:08.900Z,15.86
2022-08-05T22:44:41.001Z,15.87
2022-08-05T22:47:14.870Z,15.88
2022-08-05T22:50:20.932Z,15.87
2022-08-05T22:52:45.655Z,15.85
2022-08-05T22:55:19.298Z,15.85
2022-08-05T22:57:49.454Z,15.83
2022-08-05T23:00:21.184Z,15.83
2022-08-05T23:02:49.856Z,15.80
2022-08-05T23:05:19.007Z,15.79
2022-08-05T23:07:50.590Z,15.78
2022-08-05T23:10:20.966Z,15.77
2022-08-05T23:12:54.669Z,15.75
2022-08-05T23:15:27.023Z,15.73
2022-08-05T23:18:00.923Z,15.71
2022-08-05T23:20:31.209Z,15.71
2022-08-05T23:23:00.401Z,15.70
2022-08-05T23:25:50.963Z,15.69
2022-08-05T23:28:20.539Z,15.66
2022-08-05T23:30:54.019Z,15.67
2022-08-05T23:33:26.422Z,15.66
2022-08-05T23:36:13.728Z,15.64
2022-08-05T23:38:43.072Z,15.65
2022-08-05T23:41:13.023Z,15.66
2022-08-05T23:44:03.182Z,15.67
2022-08-05T23:46:29.710Z,15.63
2022-08-05T23:49:00.568Z,15.61
2022-08-05T23:51:52.398Z,15.58
2022-08-05T23:54:25.161Z,15.52
2022-08-05T23:57:03.863Z,15.56
